Time;durP1;ratioP1;P1;durP2;ratioP2;P2;SDS_P1;SDS_P2;PMS_P1;PMS_P2;Temp;Humidity;BMP_temperature;BMP_pressure;BME280_temperature;BME280_humidity;BME280_pressure;Samples;Min_cycle;Max_cycle;Signal;HPM_P1;HPM_P2
2022/12/02 03:35:55;;;;;;;35.50;13.90;;;;;;;1.07;85.92;101253.69;103373;1297;22458;-58
2022/12/02 03:38:32;;;;;;;28.70;10.60;;;;;;;1.06;85.93;101247.48;103476;1278;24218;-58
2022/12/02 03:41:05;;;;;;;30.80;10.80;;;;;;;1.05;85.84;101248.41;103484;1303;24318;-60
2022/12/02 03:43:36;;;;;;;31.60;11.40;;;;;;;1.03;85.75;101247.40;103490;1278;22579;-58
2022/12/02 03:46:09;;;;;;;27.10;10.70;;;;;;;1.04;85.82;101244.02;103414;1278;24253;-59
2022/12/02 03:48:42;;;;;;;30.80;11.20;;;;;;;1.02;85.70;101242.84;103351;1278;22647;-59
2022/12/02 03:51:14;;;;;;;28.10;10.20;;;;;;;0.99;85.62;101244.33;103514;1277;24243;-55
2022/12/02 03:53:46;;;;;;;28.40;11.00;;;;;;;0.98;85.69;101238.27;103438;1303;22466;-58
2022/12/02 03:56:19;;;;;;;31.60;12.60;;;;;;;0.98;85.80;101239.38;103343;1279;24318;-56
2022/12/02 03:58:52;;;;;;;29.50;12.80;;;;;;;0.99;85.91;101241.35;103489;1303;22469;-57
2022/12/02 04:01:25;;;;;;;37.40;13.90;;;;;;;1.01;86.02;101233.17;103600;1288;22585;-55
2022/12/02 04:03:57;;;;;;;29.10;10.50;;;;;;;1.03;85.92;101229.25;103377;1279;25545;-57
2022/12/02 04:06:28;;;;;;;32.10;13.20;;;;;;;0.99;85.67;101226.10;103527;1303;22504;-57
2022/12/02 04:08:59;;;;;;;32.80;12.80;;;;;;;0.97;85.89;101228.77;103513;1303;22590;-57
2022/12/02 04:11:31;;;;;;;30.60;11.60;;;;;;;0.97;85.96;101223.03;103475;1279;24189;-58
2022/12/02 04:14:02;;;;;;;31.70;12.70;;;;;;;0.97;86.07;101226.80;103420;1303;25233;-57
2022/12/02 04:16:33;;;;;;;35.50;12.00;;;;;;;0.99;86.15;101225.09;103439;1278;22466;-57
2022/12/02 04:19:04;;;;;;;37.30;14.10;;;;;;;0.98;85.99;101228.70;103423;1288;22480;-57
2022/12/02 04:21:36;;;;;;;38.00;15.00;;;;;;;0.99;86.23;101227.20;103337;1278;22558;-58
2022/12/02 04:24:08;;;;;;;32.90;12.70;;;;;;;1.00;86.11;101225.64;103294;1303;22485;-57
2022/12/02 04:26:40;;;;;;;28.20;11.60;;;;;;;0.99;85.97;101228.55;103584;1278;24378;-59
2022/12/02 04:29:12;;;;;;;30.20;11.00;;;;;;;0.98;86.04;101220.05;103496;1282;22945;-59
2022/12/02 04:31:44;;;;;;;29.30;11.20;;;;;;;0.95;85.77;101219.42;103392;1297;22478;-57
2022/12/02 04:34:16;;;;;;;32.60;12.10;;;;;;;0.92;85.90;101220.75;103441;1282;22467;-56
2022/12/02 04:36:47;;;;;;;31.40;11.90;;;;;;;0.91;85.95;101217.28;103610;1303;22470;-57
2022/12/02 04:39:19;;;;;;;33.50;11.10;;;;;;;0.92;86.03;101216.58;103417;1277;22832;-56
2022/12/02 04:41:52;;;;;;;31.30;12.30;;;;;;;0.93;86.09;101211.33;103503;1303;22678;-57
2022/12/02 04:44:23;;;;;;;37.80;13.50;;;;;;;0.96;86.18;101212.90;103534;1283;25345;-57
2022/12/02 04:46:55;;;;;;;36.10;13.30;;;;;;;0.96;86.01;101215.27;103445;1294;22484;-57
2022/12/02 04:49:27;;;;;;;37.00;13.30;;;;;;;0.95;86.22;101213.14;103484;1277;25299;-59
2022/12/02 04:51:59;;;;;;;34.30;13.20;;;;;;;0.97;86.39;101215.34;103457;1279;22600;-54
2022/12/02 04:54:30;;;;;;;36.20;14.60;;;;;;;0.99;86.25;101215.10;103457;1278;24437;-60
2022/12/02 04:57:02;;;;;;;34.90;13.60;;;;;;;0.99;86.13;101218.17;103367;1279;22466;-56
2022/12/02 04:59:34;;;;;;;37.50;15.10;;;;;;;0.98;86.04;101209.53;103392;1278;24373;-58
2022/12/02 05:02:06;;;;;;;36.10;12.70;;;;;;;0.96;85.98;101209.77;103665;1278;22474;-59
2022/12/02 05:04:37;;;;;;;37.70;13.90;;;;;;;0.97;86.04;101210.08;103479;1279;22470;-58
2022/12/02 05:07:08;;;;;;;36.70;14.00;;;;;;;0.96;86.05;101208.59;103461;1282;25566;-54
2022/12/02 05:09:40;;;;;;;30.30;11.60;;;;;;;0.97;86.04;101210.86;103500;1303;22466;-58
2022/12/02 05:12:14;;;;;;;38.30;14.10;;;;;;;0.99;86.01;101212.52;103437;1280;25606;-58
2022/12/02 05:14:45;;;;;;;37.10;13.90;;;;;;;0.98;86.22;101210.16;103535;1282;25653;-60
2022/12/02 05:17:16;;;;;;;33.10;13.10;;;;;;;0.99;86.12;101211.10;103586;1278;22500;-61
2022/12/02 05:19:48;;;;;;;32.30;12.30;;;;;;;1.00;86.26;101213.52;103506;1303;22493;-64
2022/12/02 05:22:19;;;;;;;32.20;12.20;;;;;;;1.00;86.11;101214.08;103440;1279;22588;-60
2022/12/02 05:24:51;;;;;;;33.90;13.40;;;;;;;1.00;86.29;101213.14;103346;1277;22510;-59
2022/12/02 05:27:22;;;;;;;34.10;13.10;;;;;;;1.01;86.10;101208.44;103584;1279;23097;-60
2022/12/02 05:29:53;;;;;;;35.00;13.00;;;;;;;0.98;85.92;101217.14;103401;1278;22471;-59
2022/12/02 05:32:25;;;;;;;45.80;17.70;;;;;;;0.97;86.07;101212.91;103511;1279;22477;-59
2022/12/02 05:34:56;;;;;;;37.00;14.40;;;;;;;0.95;85.93;101209.05;103504;1303;26796;-59
2022/12/02 05:37:27;;;;;;;38.20;15.20;;;;;;;0.96;85.86;101214.15;103228;1277;22475;-62
2022/12/02 05:40:00;;;;;;;32.40;13.30;;;;;;;0.95;85.94;101210.86;104919;1281;24301;-54
2022/12/02 05:42:31;;;;;;;32.00;13.10;;;;;;;0.94;86.04;101213.84;103522;1295;24307;-58
2022/12/02 05:45:07;;;;;;;32.50;12.00;;;;;;;0.94;86.03;101214.30;103444;1279;22466;-58
2022/12/02 05:47:38;;;;;;;32.50;13.50;;;;;;;0.93;86.03;101216.51;103299;1303;25231;-57
2022/12/02 05:50:14;;;;;;;30.90;11.70;;;;;;;0.93;85.77;101217.92;103472;1296;23181;-57
2022/12/02 05:52:48;;;;;;;33.30;13.00;;;;;;;0.91;85.80;101220.02;103560;1303;22477;-59
2022/12/02 05:55:21;;;;;;;34.40;12.40;;;;;;;0.92;85.94;101225.54;104428;1271;22888;-58
2022/12/02 05:57:54;;;;;;;35.40;11.80;;;;;;;0.92;85.96;101225.85;107081;1278;22897;-57
2022/12/02 06:00:26;;;;;;;33.50;12.20;;;;;;;0.91;85.94;101228.29;104313;1279;22658;-58
2022/12/02 06:03:01;;;;;;;32.30;13.20;;;;;;;0.93;85.77;101226.48;103490;1279;22639;-57
2022/12/02 06:05:37;;;;;;;30.70;11.80;;;;;;;0.92;85.68;101231.43;103638;1278;25434;-58
2022/12/02 06:08:17;;;;;;;39.30;15.90;;;;;;;0.92;85.76;101228.75;103539;1278;25180;-57
2022/12/02 06:10:52;;;;;;;41.90;16.50;;;;;;;0.93;85.81;101230.58;103505;1303;25304;-54
2022/12/02 06:13:27;;;;;;;40.20;17.30;;;;;;;0.93;85.75;101229.79;103658;1279;22481;-54
2022/12/02 06:16:01;;;;;;;34.60;13.60;;;;;;;0.93;85.58;101229.08;103441;1277;22520;-56
2022/12/02 06:18:35;;;;;;;34.30;12.20;;;;;;;0.91;85.40;101228.52;107327;1281;22310;-58
2022/12/02 06:21:15;;;;;;;34.10;12.60;;;;;;;0.89;85.59;101233.77;103852;1303;25378;-58
2022/12/02 06:23:49;;;;;;;36.00;13.20;;;;;;;0.91;85.68;101232.91;103382;1279;22475;-58
2022/12/02 06:26:22;;;;;;;31.60;11.90;;;;;;;0.91;85.62;101235.04;103516;1279;22481;-56
2022/12/02 06:28:58;;;;;;;36.00;13.00;;;;;;;0.93;85.50;101237.17;103508;1298;23185;-57
2022/12/02 06:31:32;;;;;;;34.40;12.40;;;;;;;0.94;85.56;101240.23;103617;1288;24201;-58
2022/12/02 06:34:20;;;;;;;35.40;12.70;;;;;;;0.96;85.63;101241.65;103437;1278;22620;-59
2022/12/02 06:36:52;;;;;;;29.90;12.30;;;;;;;0.98;85.39;101240.79;103308;1302;24281;-56
2022/12/02 06:39:25;;;;;;;38.30;11.70;;;;;;;0.95;85.36;101242.52;103424;1279;25593;-57
2022/12/02 06:41:56;;;;;;;34.50;14.00;;;;;;;0.92;85.22;101244.39;103375;1293;22483;-55
2022/12/02 06:47:54;;;;;;;43.60;18.30;;;;;;;0.91;85.48;101252.87;103351;1271;22466;-57
2022/12/02 06:50:32;;;;;;;34.80;17.30;;;;;;;0.90;85.45;101249.95;103415;1277;22852;-55
2022/12/02 06:53:28;;;;;;;40.70;15.40;;;;;;;0.90;85.77;101252.47;103367;1295;22469;-57
2022/12/02 06:56:04;;;;;;;91.50;36.60;;;;;;;0.92;85.72;101260.09;103509;1289;25384;-54
2022/12/02 06:58:39;;;;;;;97.80;38.50;;;;;;;0.94;85.79;101263.26;103335;1303;22470;-56
2022/12/02 07:01:26;;;;;;;140.60;60.40;;;;;;;0.96;85.67;101264.03;103414;1303;22465;-57
2022/12/02 07:04:26;;;;;;;91.20;37.50;;;;;;;0.96;85.62;101261.76;103360;1277;25313;-54
2022/12/02 07:07:01;;;;;;;49.50;18.90;;;;;;;0.99;85.67;101269.86;103322;1275;22594;-58
2022/12/02 07:09:40;;;;;;;55.10;21.80;;;;;;;0.97;85.53;101268.36;103210;1282;25673;-57
2022/12/02 07:12:19;;;;;;;47.00;19.30;;;;;;;0.96;85.48;101269.46;103288;1277;22487;-53
2022/12/02 07:14:52;;;;;;;43.70;17.20;;;;;;;0.97;85.74;101265.92;103387;1286;24412;-54
2022/12/02 07:17:28;;;;;;;43.80;16.70;;;;;;;0.99;85.88;101266.64;103495;1279;22529;-56
2022/12/02 07:20:15;;;;;;;40.50;14.40;;;;;;;1.02;85.74;101260.83;103498;1297;24837;-56
2022/12/02 07:22:50;;;;;;;39.00;15.20;;;;;;;1.01;85.51;101263.74;103577;1303;22695;-53
2022/12/02 07:25:34;;;;;;;40.50;15.00;;;;;;;0.99;85.58;101262.71;103309;1279;22647;-56
2022/12/02 07:28:19;;;;;;;38.10;15.00;;;;;;;0.98;85.57;101262.95;103304;1279;22579;-55
2022/12/02 07:30:59;;;;;;;55.40;22.70;;;;;;;0.98;85.51;101266.02;103399;1278;22605;-53
2022/12/02 07:33:30;;;;;;;51.40;21.90;;;;;;;0.96;85.57;101265.21;103537;1276;24665;-57
2022/12/02 07:36:03;;;;;;;68.90;26.30;;;;;;;0.96;85.56;101260.11;103234;1281;23680;-55
2022/12/02 07:38:35;;;;;;;56.30;26.80;;;;;;;0.95;85.53;101263.96;103302;1303;24395;-54
2022/12/02 07:41:07;;;;;;;48.90;21.90;;;;;;;0.95;85.67;101259.80;103515;1303;22674;-59
2022/12/02 07:43:38;;;;;;;49.50;22.80;;;;;;;0.97;85.85;101265.06;103374;1298;22478;-54
2022/12/02 07:46:10;;;;;;;64.20;31.90;;;;;;;0.99;85.70;101266.33;103528;1282;22490;-57
2022/12/02 07:48:41;;;;;;;83.90;38.20;;;;;;;0.97;85.43;101259.02;103423;1281;24298;-56
2022/12/02 07:51:12;;;;;;;92.80;43.20;;;;;;;0.94;85.54;101263.25;103485;1285;22467;-56
2022/12/02 07:53:44;;;;;;;75.20;35.80;;;;;;;0.94;85.62;101265.28;103322;1278;22599;-57
2022/12/02 07:56:15;;;;;;;65.70;31.50;;;;;;;0.94;85.87;101266.46;103551;1288;22468;-56
2022/12/02 07:58:46;;;;;;;48.40;22.30;;;;;;;0.95;85.57;101264.66;103470;1303;25302;-56
2022/12/02 08:01:18;;;;;;;42.10;15.90;;;;;;;0.93;85.68;101263.09;103250;1277;23150;-56
2022/12/02 08:03:49;;;;;;;36.70;16.00;;;;;;;0.95;85.83;101267.17;103438;1286;22464;-53
2022/12/02 08:06:20;;;;;;;41.00;16.80;;;;;;;0.97;85.61;101267.58;103407;1285;24255;-55
2022/12/02 08:08:52;;;;;;;39.20;14.90;;;;;;;0.96;85.32;101272.52;103382;1278;22894;-57
2022/12/02 08:11:23;;;;;;;37.30;15.50;;;;;;;0.93;85.28;101270.71;103326;1279;24232;-54
2022/12/02 08:13:55;;;;;;;38.80;15.00;;;;;;;0.91;85.30;101271.72;103258;1303;22475;-52
2022/12/02 08:16:27;;;;;;;37.60;14.10;;;;;;;0.87;85.31;101270.06;103413;1277;22470;-57
2022/12/02 08:19:00;;;;;;;37.50;13.40;;;;;;;0.86;85.35;101266.91;103240;1285;22622;-56
2022/12/02 08:21:31;;;;;;;36.00;14.80;;;;;;;0.84;85.43;101264.09;103298;1277;22603;-53
2022/12/02 08:24:04;;;;;;;34.80;12.80;;;;;;;0.86;85.60;101269.58;103370;1303;26639;-57
2022/12/02 08:26:36;;;;;;;36.10;14.40;;;;;;;0.87;85.16;101271.08;103442;1278;22493;-56
2022/12/02 08:29:08;;;;;;;35.30;13.50;;;;;;;0.87;85.34;101272.96;103441;1278;22768;-57
2022/12/02 08:31:40;;;;;;;36.90;13.80;;;;;;;0.88;85.43;101276.73;103448;1303;25931;-54
2022/12/02 08:34:11;;;;;;;39.20;13.10;;;;;;;0.89;85.32;101277.92;103434;1278;25267;-57
2022/12/02 08:36:42;;;;;;;34.90;13.10;;;;;;;0.89;85.10;101276.66;103312;1279;22470;-58
2022/12/02 08:39:14;;;;;;;40.50;14.10;;;;;;;0.90;85.27;101273.77;103335;1285;22486;-58
2022/12/02 08:41:45;;;;;;;36.80;13.40;;;;;;;0.90;85.28;101267.70;103341;1278;24378;-56
2022/12/02 08:44:17;;;;;;;39.70;14.50;;;;;;;0.92;85.17;101272.59;103454;1277;22462;-56
2022/12/02 08:46:48;;;;;;;41.40;16.40;;;;;;;0.92;85.20;101266.53;103382;1300;24241;-53
2022/12/02 08:49:20;;;;;;;41.30;17.60;;;;;;;0.91;84.98;101261.11;103445;1285;22475;-54
2022/12/02 08:51:52;;;;;;;42.00;17.10;;;;;;;0.90;84.99;101263.39;103446;1282;24309;-55
2022/12/02 08:54:23;;;;;;;40.10;17.10;;;;;;;0.88;85.04;101265.04;103401;1278;25195;-56
2022/12/02 08:56:55;;;;;;;35.20;15.60;;;;;;;0.89;85.05;101261.82;103377;1277;22524;-56
2022/12/02 08:59:27;;;;;;;33.40;13.40;;;;;;;0.87;84.88;101263.77;103546;1280;25560;-56
2022/12/02 09:01:58;;;;;;;38.60;14.40;;;;;;;0.85;84.94;101266.29;103558;1281;22472;-54
2022/12/02 09:04:30;;;;;;;37.90;15.00;;;;;;;0.85;84.90;101262.83;103475;1279;24375;-54
2022/12/02 09:07:04;;;;;;;49.80;18.80;;;;;;;0.85;84.97;101265.19;103260;1278;24309;-58
2022/12/02 09:09:36;;;;;;;51.80;19.80;;;;;;;0.87;85.00;101265.02;103390;1285;22485;-55
2022/12/02 09:12:08;;;;;;;62.60;21.40;;;;;;;0.87;84.83;101265.73;103365;1285;22495;-54
2022/12/02 09:14:40;;;;;;;44.70;16.90;;;;;;;0.86;84.79;101266.28;103378;1285;22623;-57
2022/12/02 09:17:11;;;;;;;46.30;18.30;;;;;;;0.83;84.59;101264.23;103379;1285;24023;-55
2022/12/02 09:19:42;;;;;;;45.60;17.20;;;;;;;0.83;84.82;101262.81;103411;1285;22478;-53
2022/12/02 09:22:14;;;;;;;39.70;16.20;;;;;;;0.83;84.74;101266.11;103383;1279;24394;-56
2022/12/02 09:24:46;;;;;;;40.00;16.30;;;;;;;0.83;84.49;101265.56;103408;1280;22499;-58
2022/12/02 09:27:17;;;;;;;43.30;15.70;;;;;;;0.83;84.63;101265.97;103384;1277;25318;-55
2022/12/02 09:29:49;;;;;;;49.20;20.60;;;;;;;0.83;84.43;101266.59;103354;1279;22462;-57
2022/12/02 09:32:20;;;;;;;46.90;19.10;;;;;;;0.82;84.44;101264.15;103432;1300;22472;-56
2022/12/02 09:34:52;;;;;;;40.60;14.60;;;;;;;0.83;84.59;101260.70;103420;1303;22616;-55
2022/12/02 09:37:23;;;;;;;40.70;13.20;;;;;;;0.83;84.36;101263.77;103340;1294;25512;-56
2022/12/02 09:39:55;;;;;;;34.80;13.70;;;;;;;0.84;84.18;101267.45;103181;1304;22465;-53
2022/12/02 09:42:27;;;;;;;30.30;12.30;;;;;;;0.83;84.53;101266.13;103265;1285;24231;-56
2022/12/02 09:45:00;;;;;;;33.00;13.20;;;;;;;0.86;84.20;101266.98;103372;1291;25438;-54
2022/12/02 09:47:32;;;;;;;32.50;13.00;;;;;;;0.86;84.21;101270.21;103227;1278;25225;-58
2022/12/02 09:50:04;;;;;;;31.70;12.50;;;;;;;0.89;84.49;101266.38;103429;1302;22499;-57
2022/12/02 09:52:36;;;;;;;36.80;15.50;;;;;;;0.91;84.50;101265.52;103322;1281;25432;-57
2022/12/02 09:55:14;;;;;;;40.60;16.10;;;;;;;0.93;84.33;101264.98;103328;1289;22465;-57
2022/12/02 09:57:46;;;;;;;42.80;17.00;;;;;;;0.94;84.10;101265.29;103456;1293;25209;-59
2022/12/02 10:00:22;;;;;;;37.20;15.00;;;;;;;0.92;84.19;101262.54;103537;1296;23011;-59
2022/12/02 10:02:54;;;;;;;38.40;15.80;;;;;;;0.93;84.15;101263.89;103537;1279;22577;-55
2022/12/02 10:05:28;;;;;;;40.20;15.90;;;;;;;0.92;84.11;101263.08;103550;1277;22456;-57
2022/12/02 10:08:01;;;;;;;40.60;16.50;;;;;;;0.91;83.93;101260.95;103449;1271;22479;-58
2022/12/02 10:10:38;;;;;;;39.30;14.30;;;;;;;0.92;84.05;101261.67;103631;1284;22480;-58
2022/12/02 10:13:13;;;;;;;35.60;13.20;;;;;;;0.91;84.11;101258.13;103438;1303;22601;-56
2022/12/02 10:15:49;;;;;;;39.60;13.90;;;;;;;0.93;84.05;101253.29;103338;1277;24286;-56
2022/12/02 10:18:24;;;;;;;38.00;13.70;;;;;;;0.94;83.99;101254.38;103459;1278;25654;-56
2022/12/02 10:20:56;;;;;;;43.50;16.50;;;;;;;0.92;84.10;101252.00;103385;1274;23335;-58
2022/12/02 10:23:29;;;;;;;44.00;15.40;;;;;;;0.92;84.11;101247.20;103450;1302;23099;-58
2022/12/02 10:26:14;;;;;;;43.40;16.80;;;;;;;0.92;84.04;101243.60;103776;1276;26469;-58
2022/12/02 10:29:01;;;;;;;49.60;18.80;;;;;;;0.94;84.12;101246.36;103425;1279;22466;-56
2022/12/02 10:31:34;;;;;;;45.30;19.00;;;;;;;0.92;84.00;101248.40;103590;1277;22471;-59
2022/12/02 10:34:07;;;;;;;47.10;16.60;;;;;;;0.92;84.15;101247.46;103332;1279;24673;-57
2022/12/02 10:36:40;;;;;;;43.60;16.50;;;;;;;0.94;84.53;101248.16;103264;1285;22459;-57
2022/12/02 10:39:25;;;;;;;42.60;16.00;;;;;;;0.95;84.39;101247.23;103357;1272;22484;-57
2022/12/02 10:42:20;;;;;;;52.20;19.70;;;;;;;0.95;84.09;101244.08;103448;1279;24211;-57
2022/12/02 10:45:21;;;;;;;42.20;15.50;;;;;;;0.90;83.76;101246.42;103412;1303;22481;-58
2022/12/02 10:48:10;;;;;;;40.70;14.60;;;;;;;0.84;83.90;101245.71;103421;1279;25385;-57
2022/12/02 10:50:42;;;;;;;41.40;14.90;;;;;;;0.81;83.87;101241.93;103334;1302;22989;-59
2022/12/02 10:53:16;;;;;;;37.90;15.10;;;;;;;0.80;83.97;101244.84;103241;1279;22461;-57
2022/12/02 10:55:48;;;;;;;51.90;19.40;;;;;;;0.77;83.84;101241.61;103355;1303;22490;-55
2022/12/02 10:58:25;;;;;;;41.80;15.80;;;;;;;0.77;84.04;101240.27;103470;1279;22595;-59
2022/12/02 11:00:58;;;;;;;56.70;20.90;;;;;;;0.75;84.18;101235.79;103507;1277;25286;-58
2022/12/02 11:03:29;;;;;;;44.30;16.10;;;;;;;0.78;84.09;101238.46;103386;1278;25983;-57
2022/12/02 11:06:02;;;;;;;54.50;20.90;;;;;;;0.79;84.22;101235.40;103302;1303;22492;-57
2022/12/02 11:08:34;;;;;;;61.20;22.00;;;;;;;0.79;84.10;101234.62;103446;1277;24319;-59
2022/12/02 11:11:13;;;;;;;51.30;16.40;;;;;;;0.79;84.06;101237.37;103388;1281;23353;-60
2022/12/02 11:13:56;;;;;;;38.40;14.20;;;;;;;0.80;84.00;101236.04;103535;1287;22479;-57
2022/12/02 11:16:46;;;;;;;38.70;13.80;;;;;;;0.80;83.78;101236.11;103371;1278;22472;-58
2022/12/02 11:19:45;;;;;;;38.60;13.80;;;;;;;0.77;83.86;101236.03;103394;1276;25292;-56
2022/12/02 11:22:49;;;;;;;41.70;14.00;;;;;;;0.77;83.74;101233.67;102890;1284;22464;-57
2022/12/02 11:25:57;;;;;;;39.10;13.80;;;;;;;0.79;84.26;101234.79;102565;1289;22477;-56
2022/12/02 11:28:45;;;;;;;43.30;14.90;;;;;;;0.82;84.14;101231.64;102891;1280;22618;-58
2022/12/02 11:31:27;;;;;;;43.90;15.90;;;;;;;0.83;84.06;101228.58;102520;1287;22469;-58
2022/12/02 11:34:05;;;;;;;43.90;15.30;;;;;;;0.83;84.03;101231.57;102659;1290;22630;-59
2022/12/02 11:36:39;;;;;;;38.00;15.10;;;;;;;0.82;83.99;101229.13;102609;1291;22750;-56
2022/12/02 11:39:11;;;;;;;33.30;12.70;;;;;;;0.80;83.97;101225.29;102647;1312;25433;-54
2022/12/02 11:42:26;;;;;;;36.90;14.80;;;;;;;0.79;84.08;101226.38;102619;1291;22507;-57
2022/12/02 11:45:46;;;;;;;46.10;18.60;;;;;;;0.80;84.05;101228.48;102051;1292;22585;-59
2022/12/02 11:48:18;;;;;;;66.60;26.50;;;;;;;0.79;84.09;101222.52;102357;1294;22715;-58
2022/12/02 11:50:50;;;;;;;139.30;56.40;;;;;;;0.81;84.30;101226.45;102322;1294;22721;-58
2022/12/02 11:53:24;;;;;;;141.90;58.70;;;;;;;0.83;84.16;101228.57;102259;1294;22960;-56
2022/12/02 11:55:55;;;;;;;120.70;50.70;;;;;;;0.83;84.03;101229.77;102236;1318;25359;-57
2022/12/02 11:58:31;;;;;;;159.20;59.10;;;;;;;0.83;84.18;101225.76;102160;1290;25322;-56
2022/12/02 12:01:06;;;;;;;124.10;41.60;;;;;;;0.83;84.01;101220.09;102581;1285;22497;-55
2022/12/02 12:03:43;;;;;;;141.70;47.00;;;;;;;0.80;83.81;101223.87;102779;1299;25608;-59
2022/12/02 12:06:15;;;;;;;119.70;43.80;;;;;;;0.75;83.82;101222.67;103078;1288;22477;-58
2022/12/02 12:08:49;;;;;;;77.50;29.70;;;;;;;0.72;83.88;101220.63;103135;1285;25374;-58
2022/12/02 12:11:29;;;;;;;121.10;44.20;;;;;;;0.69;83.81;101219.20;103170;1283;26634;-57
2022/12/02 12:14:07;;;;;;;90.50;35.20;;;;;;;0.64;83.83;101219.73;103021;1283;22464;-60
2022/12/02 12:16:42;;;;;;;101.40;36.70;;;;;;;0.64;84.02;101220.52;102950;1275;22760;-57
2022/12/02 12:19:34;;;;;;;67.00;24.20;;;;;;;0.65;83.99;101220.45;103234;1300;22658;-56
2022/12/02 12:22:26;;;;;;;43.20;16.10;;;;;;;0.65;83.90;101210.16;103293;1282;22473;-57
2022/12/02 12:25:41;;;;;;;46.40;19.20;;;;;;;0.65;83.88;101208.20;103410;1288;22581;-57
2022/12/02 12:28:27;;;;;;;39.50;14.80;;;;;;;0.61;83.76;101207.55;103528;1279;22731;-57
2022/12/02 12:30:59;;;;;;;39.10;14.30;;;;;;;0.60;83.73;101211.95;103494;1297;22476;-56
2022/12/02 12:33:31;;;;;;;56.30;21.90;;;;;;;0.59;84.01;101209.36;103392;1282;22471;-55
2022/12/02 12:36:02;;;;;;;61.70;24.80;;;;;;;0.60;83.93;101213.84;103379;1271;22485;-58
2022/12/02 12:38:35;;;;;;;47.00;18.80;;;;;;;0.62;83.99;101212.90;103406;1279;22842;-56
2022/12/02 12:41:06;;;;;;;63.00;24.10;;;;;;;0.64;83.88;101211.48;103412;1282;22473;-60
2022/12/02 12:43:37;;;;;;;67.90;24.30;;;;;;;0.62;83.85;101213.85;103346;1300;22514;-55
2022/12/02 12:46:15;;;;;;;44.40;18.60;;;;;;;0.62;83.87;101212.59;103437;1273;24601;-55
2022/12/02 12:48:47;;;;;;;44.70;17.20;;;;;;;0.61;84.01;101211.96;103208;1278;23366;-58
2022/12/02 12:51:18;;;;;;;45.00;17.10;;;;;;;0.63;83.81;101207.80;103293;1282;22562;-58
2022/12/02 12:53:50;;;;;;;43.20;17.40;;;;;;;0.62;83.72;101208.19;103487;1288;26644;-59
2022/12/02 12:56:21;;;;;;;37.70;15.00;;;;;;;0.61;83.49;101203.40;103424;1274;25265;-54
2022/12/02 12:58:54;;;;;;;41.10;17.70;;;;;;;0.56;83.45;101203.46;103334;1278;24341;-57
2022/12/02 13:01:26;;;;;;;40.50;16.80;;;;;;;0.54;83.57;101199.77;103193;1277;23095;-57
2022/12/02 13:03:59;;;;;;;43.20;16.70;;;;;;;0.51;83.49;101204.08;103378;1278;22481;-56
2022/12/02 13:06:31;;;;;;;43.30;15.80;;;;;;;0.50;83.74;101204.69;103362;1278;22474;-58
2022/12/02 13:09:03;;;;;;;47.70;17.60;;;;;;;0.48;83.62;101202.25;103296;1275;22463;-55
2022/12/02 13:11:35;;;;;;;40.40;16.20;;;;;;;0.48;83.63;101201.00;103400;1277;25293;-57
2022/12/02 13:14:06;;;;;;;45.70;19.60;;;;;;;0.47;83.76;101206.17;103247;1303;22461;-58
2022/12/02 13:16:38;;;;;;;51.30;22.30;;;;;;;0.47;83.83;101207.05;103510;1293;22486;-54
2022/12/02 13:19:09;;;;;;;45.50;17.60;;;;;;;0.47;83.81;101206.02;103453;1285;22465;-53
2022/12/02 13:21:41;;;;;;;43.50;17.70;;;;;;;0.46;83.80;101209.00;103306;1303;22475;-56
2022/12/02 13:24:14;;;;;;;50.50;19.90;;;;;;;0.46;83.75;101211.83;103206;1271;22732;-55
2022/12/02 13:26:45;;;;;;;50.20;20.50;;;;;;;0.46;83.72;101205.00;103188;1292;22496;-54
2022/12/02 13:29:17;;;;;;;42.80;18.20;;;;;;;0.44;83.60;101209.30;103319;1277;22485;-58
2022/12/02 13:31:48;;;;;;;47.20;16.60;;;;;;;0.42;83.61;101210.94;103228;1303;22606;-52
2022/12/02 13:34:20;;;;;;;48.60;17.50;;;;;;;0.41;83.73;101215.73;103259;1303;22766;-55
2022/12/02 13:36:52;;;;;;;38.00;16.40;;;;;;;0.40;83.63;101212.04;103269;1279;22462;-53
2022/12/02 13:39:23;;;;;;;46.20;19.90;;;;;;;0.35;83.68;101213.66;103375;1274;24429;-57
2022/12/02 13:41:54;;;;;;;45.50;20.40;;;;;;;0.34;83.74;101214.13;103123;1279;22480;-56
2022/12/02 13:44:26;;;;;;;49.20;21.40;;;;;;;0.34;83.91;101212.25;102378;1296;1328601;-54
2022/12/02 13:46:57;;;;;;;49.00;22.20;;;;;;;0.34;84.04;101215.14;103320;1271;22934;-55
2022/12/02 13:49:29;;;;;;;47.10;20.90;;;;;;;0.36;84.02;101215.63;103832;1275;22576;-55
2022/12/02 13:52:00;;;;;;;51.00;19.00;;;;;;;0.40;84.29;101213.61;103413;1292;25412;-57
2022/12/02 13:54:32;;;;;;;55.30;22.00;;;;;;;0.43;84.06;101211.02;103383;1278;25477;-56
2022/12/02 13:57:04;;;;;;;51.50;20.60;;;;;;;0.44;83.97;101213.30;103365;1281;22567;-56
2022/12/02 13:59:37;;;;;;;59.40;24.20;;;;;;;0.43;83.90;101215.42;103525;1303;22726;-56
2022/12/02 14:02:09;;;;;;;51.10;20.00;;;;;;;0.41;83.81;101216.12;103344;1278;22471;-57
2022/12/02 14:04:41;;;;;;;55.10;22.70;;;;;;;0.38;83.70;101212.81;103389;1303;25628;-54
2022/12/02 14:07:12;;;;;;;280.40;124.20;;;;;;;0.37;84.04;101213.36;103398;1279;25261;-57
2022/12/02 14:09:45;;;;;;;294.40;134.50;;;;;;;0.39;84.02;101217.70;103398;1278;26631;-56
2022/12/02 14:12:16;;;;;;;197.10;93.40;;;;;;;0.40;84.08;101220.83;103383;1303;25407;-56
2022/12/02 14:14:48;;;;;;;177.80;85.30;;;;;;;0.43;84.00;101221.08;103275;1278;22483;-55
2022/12/02 14:17:19;;;;;;;109.60;44.30;;;;;;;0.45;84.13;101221.33;103428;1279;24415;-56
2022/12/02 14:19:52;;;;;;;67.10;28.70;;;;;;;0.46;84.05;101226.98;103301;1303;22479;-57
2022/12/02 14:22:23;;;;;;;63.70;27.00;;;;;;;0.44;83.88;101225.23;103328;1303;25378;-55
2022/12/02 14:24:57;;;;;;;64.50;27.90;;;;;;;0.45;84.02;101222.65;103215;1278;25746;-55
2022/12/02 14:27:28;;;;;;;54.60;24.50;;;;;;;0.46;84.03;101221.48;103342;1278;22479;-56
2022/12/02 14:30:00;;;;;;;53.70;22.30;;;;;;;0.43;83.88;101222.19;103447;1278;22505;-57
2022/12/02 14:32:31;;;;;;;44.50;17.50;;;;;;;0.41;83.91;101229.38;103385;1278;25586;-57
2022/12/02 14:35:03;;;;;;;41.40;16.80;;;;;;;0.41;83.92;101233.55;103558;1278;22505;-56
2022/12/02 14:37:34;;;;;;;36.60;15.00;;;;;;;0.41;83.94;101227.58;103434;1285;22523;-57
2022/12/02 14:40:07;;;;;;;65.40;27.10;;;;;;;0.39;83.82;101228.36;103318;1271;26942;-55
2022/12/02 14:42:39;;;;;;;52.60;21.70;;;;;;;0.41;83.97;101229.16;103560;1274;22550;-57
2022/12/02 14:45:11;;;;;;;69.80;27.50;;;;;;;0.39;83.80;101227.73;103388;1273;24377;-57
2022/12/02 14:47:56;;;;;;;90.80;37.10;;;;;;;0.38;83.76;101226.63;103181;1272;22659;-56
2022/12/02 14:50:29;;;;;;;50.00;20.30;;;;;;;0.37;83.90;101232.28;103267;1279;22421;-57
2022/12/02 14:53:00;;;;;;;47.20;20.20;;;;;;;0.37;83.70;101223.09;103533;1278;22592;-55
2022/12/02 14:55:32;;;;;;;48.90;20.60;;;;;;;0.36;83.64;101227.73;103532;1275;22613;-56
2022/12/02 14:58:04;;;;;;;46.30;20.50;;;;;;;0.36;83.47;101229.76;103272;1289;22498;-54
2022/12/02 15:00:35;;;;;;;43.40;19.80;;;;;;;0.32;83.55;101226.92;103143;1280;25103;-56
2022/12/02 15:03:06;;;;;;;47.00;18.60;;;;;;;0.33;83.80;101231.00;103303;1274;24307;-55
2022/12/02 15:05:38;;;;;;;43.00;16.00;;;;;;;0.33;83.47;101232.02;103281;1303;22828;-54
2022/12/02 15:08:10;;;;;;;37.50;14.40;;;;;;;0.26;83.06;101235.60;103341;1271;22479;-56
2022/12/02 15:10:41;;;;;;;44.10;18.10;;;;;;;0.17;83.04;101233.83;103256;1296;22603;-53
2022/12/02 15:13:12;;;;;;;42.70;17.10;;;;;;;0.12;83.21;101235.67;103189;1282;22477;-55
2022/12/02 15:15:45;;;;;;;33.90;13.10;;;;;;;0.12;83.80;101234.81;103406;1278;24446;-55
2022/12/02 15:18:19;;;;;;;33.00;12.90;;;;;;;0.14;83.53;101234.83;103422;1277;23822;-57
2022/12/02 15:20:51;;;;;;;40.60;16.00;;;;;;;0.13;83.87;101238.20;103376;1274;22501;-56